Time;durP1;ratioP1;P1;durP2;ratioP2;P2;SDS_P1;SDS_P2;PMS_P1;PMS_P2;Temp;Humidity;BMP_temperature;BMP_pressure;BME280_temperature;BME280_humidity;BME280_pressure;Samples;Min_cycle;Max_cycle;Signal;HPM_P1;HPM_P2
2022/03/30 00:01:57;;;;;;;9.10;2.33;;;;;;;;;;5012378;28;20034;-59
2022/03/30 00:04:23;;;;;;;59.47;13.25;;;;;;;;;;5016286;28;20041;-63
2022/03/30 00:06:48;;;;;;;7.70;2.33;;;;;;;;;;5023210;28;20025;-60
2022/03/30 00:09:14;;;;;;;9.00;2.67;;;;;;;;;;5024104;28;20030;-62
2022/03/30 00:11:39;;;;;;;19.13;4.53;;;;;;;;;;5027259;28;20023;-63
2022/03/30 00:14:05;;;;;;;28.60;5.68;;;;;;;;;;5025286;28;20048;-64
2022/03/30 00:16:31;;;;;;;60.95;12.95;;;;;;;;;;5026178;28;20052;-60
2022/03/30 00:18:56;;;;;;;70.82;13.77;;;;;;;;;;5025227;28;20045;-61
2022/03/30 00:21:22;;;;;;;22.15;4.70;;;;;;;;;;5024673;28;20111;-61
2022/03/30 00:23:48;;;;;;;19.60;4.75;;;;;;;;;;5024584;28;20017;-64
2022/03/30 00:26:13;;;;;;;27.92;5.65;;;;;;;;;;5025655;28;20026;-61
2022/03/30 00:28:39;;;;;;;24.83;5.55;;;;;;;;;;5023981;28;20109;-61
2022/03/30 00:31:04;;;;;;;16.27;4.55;;;;;;;;;;5024677;28;20045;-62
2022/03/30 00:33:30;;;;;;;19.35;4.15;;;;;;;;;;5025191;28;20402;-62
2022/03/30 00:35:55;;;;;;;38.05;8.85;;;;;;;;;;5023672;28;20021;-63
2022/03/30 00:38:21;;;;;;;40.00;11.00;;;;;;;;;;5032138;28;20395;-63
2022/03/30 00:40:48;;;;;;;26.15;7.90;;;;;;;;;;5035046;28;20104;-62
2022/03/30 00:43:14;;;;;;;23.27;7.20;;;;;;;;;;5034935;28;20049;-63
2022/03/30 00:45:40;;;;;;;23.48;7.80;;;;;;;;;;5034990;28;20427;-61
2022/03/30 00:48:06;;;;;;;22.25;6.20;;;;;;;;;;5001153;28;20390;-63
2022/03/30 00:50:32;;;;;;;13.70;3.35;;;;;;;;;;5035762;28;20426;-63
2022/03/30 00:52:58;;;;;;;18.17;4.20;;;;;;;;;;5035606;28;20474;-60
2022/03/30 00:55:24;;;;;;;10.32;2.38;;;;;;;;;;5035536;28;20017;-62
2022/03/30 00:57:52;;;;;;;14.45;3.10;;;;;;;;;;5035907;28;20375;-63
2022/03/30 01:00:17;;;;;;;12.90;2.40;;;;;;;;;;5035529;28;20025;-62
2022/03/30 01:02:45;;;;;;;15.32;2.72;;;;;;;;;;5035178;28;20025;-60
2022/03/30 01:05:12;;;;;;;14.32;2.53;;;;;;;;;;5035457;28;20025;-64
2022/03/30 01:07:37;;;;;;;11.80;2.80;;;;;;;;;;5035216;28;20057;-65
2022/03/30 01:10:04;;;;;;;10.57;2.83;;;;;;;;;;5035311;28;20110;-63
2022/03/30 01:12:32;;;;;;;11.20;2.45;;;;;;;;;;5017338;28;20026;-62
2022/03/30 01:14:59;;;;;;;9.65;2.33;;;;;;;;;;5033848;28;20120;-61
2022/03/30 01:17:25;;;;;;;10.20;2.72;;;;;;;;;;5035085;28;20017;-63
2022/03/30 01:19:50;;;;;;;6.97;2.25;;;;;;;;;;5035035;28;20032;-63
2022/03/30 01:22:16;;;;;;;13.82;3.25;;;;;;;;;;5035052;28;20027;-62
2022/03/30 01:24:42;;;;;;;8.85;2.40;;;;;;;;;;5034907;28;20091;-61
2022/03/30 01:27:07;;;;;;;17.77;2.83;;;;;;;;;;5034913;28;20041;-60
2022/03/30 01:32:27;;;;;;;12.27;2.67;;;;;;;;;;5034751;28;20433;-62
2022/03/30 01:34:54;;;;;;;7.68;2.50;;;;;;;;;;5034953;28;20030;-62
2022/03/30 01:37:20;;;;;;;5.60;2.03;;;;;;;;;;5034888;28;20029;-61
2022/03/30 01:39:45;;;;;;;10.18;2.38;;;;;;;;;;5034778;28;20117;-60
2022/03/30 01:42:11;;;;;;;8.50;2.47;;;;;;;;;;5034828;28;20025;-62
2022/03/30 01:44:38;;;;;;;7.63;2.50;;;;;;;;;;5034432;28;20021;-59
2022/03/30 01:47:04;;;;;;;11.02;2.90;;;;;;;;;;5034737;28;20108;-61
2022/03/30 01:49:30;;;;;;;10.18;2.17;;;;;;;;;;5034473;28;20036;-61
2022/03/30 01:51:58;;;;;;;18.95;2.88;;;;;;;;;;5034617;28;20029;-61
2022/03/30 01:54:26;;;;;;;8.45;2.33;;;;;;;;;;5034626;28;20064;-64
2022/03/30 01:56:53;;;;;;;15.45;3.05;;;;;;;;;;5034464;28;20024;-64
2022/03/30 01:59:20;;;;;;;9.18;2.30;;;;;;;;;;5034166;28;20075;-64
2022/03/30 02:01:46;;;;;;;17.15;2.55;;;;;;;;;;5034409;28;20029;-63
2022/03/30 02:04:12;;;;;;;12.73;2.70;;;;;;;;;;5034452;28;20025;-62
2022/03/30 02:06:38;;;;;;;13.57;2.42;;;;;;;;;;5031805;28;20033;-61
2022/03/30 02:09:04;;;;;;;9.35;2.17;;;;;;;;;;5014393;28;20144;-59
2022/03/30 02:11:30;;;;;;;7.80;2.15;;;;;;;;;;5018260;28;20033;-61
2022/03/30 02:13:56;;;;;;;8.32;2.22;;;;;;;;;;5033959;28;20406;-61
2022/03/30 02:16:23;;;;;;;7.88;2.03;;;;;;;;;;5034079;28;20028;-62
2022/03/30 02:18:49;;;;;;;7.57;2.30;;;;;;;;;;5034011;28;20523;-63
2022/03/30 02:21:15;;;;;;;12.50;2.53;;;;;;;;;;5034071;28;20052;-61
2022/03/30 02:23:41;;;;;;;13.00;2.92;;;;;;;;;;5034031;28;20021;-62
2022/03/30 02:26:07;;;;;;;5.05;2.25;;;;;;;;;;5033557;28;20414;-61
2022/03/30 02:28:32;;;;;;;10.15;2.13;;;;;;;;;;5033665;28;20105;-61
2022/03/30 02:30:59;;;;;;;11.45;2.53;;;;;;;;;;5033706;28;20128;-61
2022/03/30 02:33:24;;;;;;;14.35;2.67;;;;;;;;;;5033850;28;20108;-61
2022/03/30 02:35:51;;;;;;;8.13;2.10;;;;;;;;;;5033786;28;20455;-61
2022/03/30 02:38:17;;;;;;;8.27;2.63;;;;;;;;;;5033672;28;20029;-63
2022/03/30 02:40:44;;;;;;;9.70;2.65;;;;;;;;;;5033756;28;20029;-63
2022/03/30 02:43:10;;;;;;;7.25;2.63;;;;;;;;;;5033380;28;20026;-59
2022/03/30 02:45:35;;;;;;;6.82;2.10;;;;;;;;;;5033474;28;20025;-59
2022/03/30 02:48:19;;;;;;;9.00;3.08;;;;;;;;;;5033358;28;20032;-59
2022/03/30 02:50:51;;;;;;;17.23;3.28;;;;;;;;;;5033628;28;20032;-60
2022/03/30 02:53:18;;;;;;;15.68;3.20;;;;;;;;;;5033360;28;20083;-62
2022/03/30 02:55:44;;;;;;;10.32;2.42;;;;;;;;;;5033374;28;20076;-59
2022/03/30 02:58:13;;;;;;;8.18;2.60;;;;;;;;;;5033039;28;20029;-60
2022/03/30 03:00:40;;;;;;;10.10;2.70;;;;;;;;;;5033270;28;20080;-59
2022/03/30 03:03:07;;;;;;;6.95;2.28;;;;;;;;;;5033198;28;20348;-60
2022/03/30 03:05:34;;;;;;;7.55;2.28;;;;;;;;;;5033267;28;20104;-59
2022/03/30 03:08:06;;;;;;;10.68;3.13;;;;;;;;;;5019641;28;20026;-59
2022/03/30 03:10:34;;;;;;;17.25;3.22;;;;;;;;;;5013406;28;20451;-60
2022/03/30 03:13:03;;;;;;;8.65;2.45;;;;;;;;;;5029009;28;20029;-59
2022/03/30 03:15:29;;;;;;;13.40;3.38;;;;;;;;;;5033036;28;20083;-62
2022/03/30 03:17:54;;;;;;;15.30;3.13;;;;;;;;;;5032960;28;20473;-59
2022/03/30 03:20:21;;;;;;;10.77;3.05;;;;;;;;;;5032721;28;20029;-59
2022/03/30 03:22:46;;;;;;;16.50;3.72;;;;;;;;;;5033001;28;20095;-59
2022/03/30 03:25:12;;;;;;;11.30;3.72;;;;;;;;;;5032913;28;20360;-59
2022/03/30 03:27:38;;;;;;;13.88;3.50;;;;;;;;;;5032641;28;20058;-59
2022/03/30 03:30:06;;;;;;;14.48;3.80;;;;;;;;;;5032626;28;20049;-60
2022/03/30 03:32:31;;;;;;;8.85;3.30;;;;;;;;;;5032718;28;20036;-59
2022/03/30 03:34:57;;;;;;;12.70;3.05;;;;;;;;;;5032970;28;20022;-59
2022/03/30 03:37:22;;;;;;;13.70;2.90;;;;;;;;;;5031897;28;20040;-59
2022/03/30 03:39:48;;;;;;;9.20;2.95;;;;;;;;;;5032646;28;20078;-59
2022/03/30 03:42:13;;;;;;;14.57;3.45;;;;;;;;;;5032564;28;20029;-61
2022/03/30 03:44:39;;;;;;;8.75;3.20;;;;;;;;;;5032603;28;20399;-62
2022/03/30 03:47:07;;;;;;;12.30;3.60;;;;;;;;;;5032553;28;20021;-61
2022/03/30 03:49:33;;;;;;;15.55;4.78;;;;;;;;;;5032501;28;20387;-59
2022/03/30 03:51:58;;;;;;;16.90;7.03;;;;;;;;;;5032460;28;20473;-60
2022/03/30 03:54:24;;;;;;;17.13;5.40;;;;;;;;;;5032333;28;20498;-58
2022/03/30 03:56:50;;;;;;;15.48;4.13;;;;;;;;;;5032162;28;20121;-59
2022/03/30 03:59:15;;;;;;;16.63;4.70;;;;;;;;;;5032289;28;20120;-61
2022/03/30 04:01:41;;;;;;;11.35;3.95;;;;;;;;;;5032429;28;20108;-59
2022/03/30 04:04:06;;;;;;;7.90;3.00;;;;;;;;;;5032506;28;20475;-61
2022/03/30 04:06:32;;;;;;;13.32;3.75;;;;;;;;;;5030740;28;20021;-59
2022/03/30 04:08:58;;;;;;;14.07;3.17;;;;;;;;;;5012675;28;20022;-61
2022/03/30 04:11:24;;;;;;;12.55;2.97;;;;;;;;;;5015151;28;20071;-59
2022/03/30 04:13:49;;;;;;;16.40;4.07;;;;;;;;;;5032153;28;20022;-59
2022/03/30 04:16:16;;;;;;;16.65;4.45;;;;;;;;;;5032389;28;20038;-59
2022/03/30 04:18:44;;;;;;;13.65;3.13;;;;;;;;;;5032250;28;20386;-60
2022/03/30 04:21:10;;;;;;;13.25;2.80;;;;;;;;;;5032148;28;20026;-61
2022/03/30 04:23:36;;;;;;;15.35;4.55;;;;;;;;;;5032331;28;20026;-59
2022/03/30 04:26:02;;;;;;;12.85;3.28;;;;;;;;;;5031994;28;20025;-60
2022/03/30 04:28:28;;;;;;;11.93;2.90;;;;;;;;;;5031956;28;20103;-60
2022/03/30 04:30:53;;;;;;;19.60;3.90;;;;;;;;;;5032139;28;20483;-60
2022/03/30 04:33:19;;;;;;;15.38;3.47;;;;;;;;;;5031971;28;20040;-62
2022/03/30 04:35:44;;;;;;;14.38;3.42;;;;;;;;;;5032168;28;20026;-62
2022/03/30 04:38:10;;;;;;;9.07;2.72;;;;;;;;;;5032164;28;20090;-60
2022/03/30 04:40:35;;;;;;;15.43;4.35;;;;;;;;;;5031842;28;20123;-61
2022/03/30 04:43:03;;;;;;;11.20;3.80;;;;;;;;;;5032016;28;20029;-60
2022/03/30 04:45:29;;;;;;;12.43;3.10;;;;;;;;;;5032151;28;20086;-61
2022/03/30 04:47:54;;;;;;;10.50;2.75;;;;;;;;;;5032100;28;20022;-63
2022/03/30 04:50:23;;;;;;;17.85;3.88;;;;;;;;;;5035219;28;20467;-59
2022/03/30 04:52:49;;;;;;;23.63;4.65;;;;;;;;;;5035705;28;20042;-59
2022/03/30 04:55:14;;;;;;;12.70;4.07;;;;;;;;;;5035350;28;20501;-60
2022/03/30 04:57:41;;;;;;;17.70;4.10;;;;;;;;;;5035649;28;20437;-61
2022/03/30 05:00:09;;;;;;;16.27;5.50;;;;;;;;;;5035496;28;20057;-60
2022/03/30 05:02:34;;;;;;;23.27;5.95;;;;;;;;;;5035380;28;20033;-60
2022/03/30 05:05:00;;;;;;;15.30;5.25;;;;;;;;;;5035532;28;20053;-63
2022/03/30 05:07:26;;;;;;;20.10;6.32;;;;;;;;;;5026323;28;20030;-60
2022/03/30 05:09:51;;;;;;;14.85;5.60;;;;;;;;;;5015276;28;20080;-63
2022/03/30 05:12:17;;;;;;;17.58;6.53;;;;;;;;;;5025251;28;20342;-63
2022/03/30 05:14:43;;;;;;;27.13;7.43;;;;;;;;;;5035323;28;20025;-63
2022/03/30 05:17:09;;;;;;;39.00;10.05;;;;;;;;;;5035115;28;20032;-62
2022/03/30 05:19:35;;;;;;;38.63;10.32;;;;;;;;;;5034951;28;20025;-61
2022/03/30 05:22:00;;;;;;;36.50;8.63;;;;;;;;;;5034812;28;20025;-62
2022/03/30 05:24:26;;;;;;;25.80;6.75;;;;;;;;;;5035050;28;20108;-63
2022/03/30 05:26:53;;;;;;;27.13;7.25;;;;;;;;;;5035067;28;20057;-61
2022/03/30 05:29:19;;;;;;;19.50;5.78;;;;;;;;;;5034327;28;20162;-61
2022/03/30 05:31:45;;;;;;;17.70;5.28;;;;;;;;;;5034714;28;20384;-63
2022/03/30 05:34:11;;;;;;;17.83;4.82;;;;;;;;;;5035037;28;20041;-61
2022/03/30 05:36:37;;;;;;;15.02;3.88;;;;;;;;;;5034652;28;20026;-62
2022/03/30 05:39:03;;;;;;;16.58;4.47;;;;;;;;;;5034686;28;20031;-61
2022/03/30 05:41:29;;;;;;;18.83;4.22;;;;;;;;;;5034456;28;20079;-63
2022/03/30 05:43:54;;;;;;;23.05;5.65;;;;;;;;;;5034587;28;20025;-62
2022/03/30 05:46:20;;;;;;;16.83;4.35;;;;;;;;;;5034606;28;20025;-60
2022/03/30 05:48:46;;;;;;;17.55;5.20;;;;;;;;;;5034543;28;20356;-64
2022/03/30 05:51:12;;;;;;;25.50;5.10;;;;;;;;;;5034237;28;20037;-63
2022/03/30 05:53:38;;;;;;;23.02;5.25;;;;;;;;;;5034366;28;20025;-61
2022/03/30 05:56:04;;;;;;;25.30;5.32;;;;;;;;;;5034190;28;20029;-62
2022/03/30 05:58:30;;;;;;;18.33;5.72;;;;;;;;;;5034272;28;20506;-59
2022/03/30 06:00:55;;;;;;;23.13;5.30;;;;;;;;;;5033702;28;20431;-62
2022/03/30 06:03:21;;;;;;;17.58;4.97;;;;;;;;;;5034053;28;20025;-61
2022/03/30 06:05:46;;;;;;;11.32;3.20;;;;;;;;;;5033906;28;20041;-60
2022/03/30 06:08:12;;;;;;;9.90;3.50;;;;;;;;;;5018981;28;20375;-63
2022/03/30 06:10:38;;;;;;;12.55;3.47;;;;;;;;;;5014465;28;20037;-62
2022/03/30 06:13:03;;;;;;;10.90;3.53;;;;;;;;;;5030521;28;20118;-61
2022/03/30 06:15:30;;;;;;;15.93;5.32;;;;;;;;;;5033987;28;20029;-63
2022/03/30 06:17:56;;;;;;;10.65;3.90;;;;;;;;;;5034172;28;20065;-63
2022/03/30 06:20:26;;;;;;;16.40;4.95;;;;;;;;;;5033415;28;20049;-64
2022/03/30 06:22:52;;;;;;;17.77;5.22;;;;;;;;;;5034081;28;20471;-63
2022/03/30 06:25:22;;;;;;;14.05;4.75;;;;;;;;;;5033712;28;20045;-62
2022/03/30 06:27:48;;;;;;;20.08;4.93;;;;;;;;;;5033661;28;20039;-61
2022/03/30 06:30:14;;;;;;;12.13;5.25;;;;;;;;;;5033321;28;20496;-62
2022/03/30 06:32:40;;;;;;;10.57;3.30;;;;;;;;;;5033074;28;20156;-60
2022/03/30 06:35:06;;;;;;;9.15;2.92;;;;;;;;;;5033563;28;20200;-63
2022/03/30 06:37:32;;;;;;;11.65;3.33;;;;;;;;;;5013891;28;20061;-60
2022/03/30 06:39:58;;;;;;;6.85;2.50;;;;;;;;;;5013597;28;20068;-61
2022/03/30 06:42:23;;;;;;;8.90;3.15;;;;;;;;;;4996200;28;20083;-61
2022/03/30 06:44:49;;;;;;;7.53;2.45;;;;;;;;;;5013747;28;20025;-63
2022/03/30 06:47:15;;;;;;;5.90;2.10;;;;;;;;;;5013647;28;20028;-60
2022/03/30 06:49:40;;;;;;;5.57;2.20;;;;;;;;;;5013534;28;20069;-60
2022/03/30 06:52:08;;;;;;;6.18;2.63;;;;;;;;;;5013769;28;20025;-60
2022/03/30 06:54:35;;;;;;;8.55;2.03;;;;;;;;;;5013570;28;20048;-61
2022/03/30 06:57:02;;;;;;;5.78;2.03;;;;;;;;;;5013562;28;20546;-60
2022/03/30 06:59:28;;;;;;;7.53;2.13;;;;;;;;;;5013522;28;20033;-60
2022/03/30 07:01:55;;;;;;;7.13;1.73;;;;;;;;;;5028243;28;20489;-60
2022/03/30 07:04:21;;;;;;;3.83;1.58;;;;;;;;;;5032970;28;20494;-60
2022/03/30 07:12:15;;;;;;;5.57;1.80;;;;;;;;;;5031155;28;20040;-61
2022/03/30 07:14:40;;;;;;;5.80;1.70;;;;;;;;;;5032950;28;20033;-61
2022/03/30 07:17:06;;;;;;;7.13;2.05;;;;;;;;;;5032782;28;20479;-62
2022/03/30 07:19:31;;;;;;;5.10;1.65;;;;;;;;;;5032638;28;20025;-63
2022/03/30 07:21:57;;;;;;;4.25;1.63;;;;;;;;;;5021618;28;20025;-59
2022/03/30 07:24:23;;;;;;;3.25;1.90;;;;;;;;;;5031882;28;20387;-59
2022/03/30 07:26:48;;;;;;;7.78;1.98;;;;;;;;;;5023592;28;20034;-59
2022/03/30 07:29:14;;;;;;;4.63;2.08;;;;;;;;;;5020283;28;20069;-59
2022/03/30 07:31:39;;;;;;;5.18;2.03;;;;;;;;;;5022721;28;20079;-59
2022/03/30 07:34:04;;;;;;;7.90;2.25;;;;;;;;;;5021554;28;20068;-60
2022/03/30 07:36:30;;;;;;;2.67;1.40;;;;;;;;;;5021456;28;20029;-64
2022/03/30 07:38:56;;;;;;;8.57;1.80;;;;;;;;;;5017542;28;20068;-60
2022/03/30 07:41:22;;;;;;;4.47;1.60;;;;;;;;;;5012658;28;20057;-60
2022/03/30 07:43:47;;;;;;;3.60;1.30;;;;;;;;;;5016326;28;20024;-62
2022/03/30 07:46:13;;;;;;;5.28;1.88;;;;;;;;;;5032086;28;20022;-62
2022/03/30 07:48:39;;;;;;;5.97;1.65;;;;;;;;;;5031704;28;20135;-60
2022/03/30 07:51:05;;;;;;;2.65;1.70;;;;;;;;;;5032399;28;20391;-61
2022/03/30 07:53:30;;;;;;;6.78;2.15;;;;;;;;;;5032265;28;20032;-60
2022/03/30 07:55:57;;;;;;;4.00;1.98;;;;;;;;;;5030577;28;20048;-60
2022/03/30 07:58:22;;;;;;;5.00;1.60;;;;;;;;;;5012183;28;20021;-60
2022/03/30 08:00:48;;;;;;;8.63;1.60;;;;;;;;;;5012172;28;20083;-60
2022/03/30 08:03:14;;;;;;;5.60;1.83;;;;;;;;;;5028843;28;20026;-61
2022/03/30 08:05:39;;;;;;;4.25;1.52;;;;;;;;;;5031906;28;20083;-61
2022/03/30 08:08:08;;;;;;;3.70;1.42;;;;;;;;;;5031574;28;20075;-60
2022/03/30 08:10:35;;;;;;;4.38;1.52;;;;;;;;;;5031926;28;20028;-60
2022/03/30 08:13:02;;;;;;;4.30;1.60;;;;;;;;;;5031665;28;20036;-60
2022/03/30 08:15:28;;;;;;;2.55;1.52;;;;;;;;;;5032075;28;20482;-62
2022/03/30 08:17:54;;;;;;;2.92;1.50;;;;;;;;;;5031708;28;20032;-60
2022/03/30 08:23:05;;;;;;;4.47;1.30;;;;;;;;;;5031994;28;20035;-63
2022/03/30 08:25:31;;;;;;;4.38;1.38;;;;;;;;;;5031755;28;20026;-59
2022/03/30 08:27:56;;;;;;;5.07;1.52;;;;;;;;;;5022445;28;20034;-61
2022/03/30 08:30:22;;;;;;;5.50;1.60;;;;;;;;;;5016030;28;20448;-60
2022/03/30 08:32:47;;;;;;;4.25;2.00;;;;;;;;;;5015802;28;20475;-61
2022/03/30 08:35:13;;;;;;;3.22;1.63;;;;;;;;;;5025813;28;20030;-61
2022/03/30 08:37:39;;;;;;;5.85;1.73;;;;;;;;;;5025270;28;20033;-59
2022/03/30 08:40:06;;;;;;;5.68;1.80;;;;;;;;;;5024185;28;20424;-61
2022/03/30 08:42:32;;;;;;;3.28;1.80;;;;;;;;;;5024425;28;20383;-60
2022/03/30 08:44:59;;;;;;;9.15;1.90;;;;;;;;;;5025215;28;20474;-60
2022/03/30 08:47:25;;;;;;;5.25;1.60;;;;;;;;;;5025946;28;20035;-61
2022/03/30 08:49:51;;;;;;;6.13;1.67;;;;;;;;;;5015737;28;20036;-62
2022/03/30 08:52:17;;;;;;;9.73;1.67;;;;;;;;;;5031389;28;20034;-59
2022/03/30 08:54:44;;;;;;;4.90;1.80;;;;;;;;;;5035053;28;20034;-60
2022/03/30 08:57:10;;;;;;;5.22;1.63;;;;;;;;;;5035335;28;20026;-61
2022/03/30 08:59:36;;;;;;;3.50;1.42;;;;;;;;;;5026293;28;20034;-59
2022/03/30 09:02:02;;;;;;;3.60;1.55;;;;;;;;;;5024353;28;20028;-60
2022/03/30 09:04:27;;;;;;;4.47;1.70;;;;;;;;;;5025712;28;20053;-60
2022/03/30 09:06:56;;;;;;;6.18;1.70;;;;;;;;;;5029211;28;20379;-60
2022/03/30 09:09:30;;;;;;;4.45;1.50;;;;;;;;;;5035022;28;20034;-61
2022/03/30 09:11:56;;;;;;;14.55;5.25;;;;;;;;;;5035139;28;20051;-60
2022/03/30 09:14:29;;;;;;;5.60;2.30;;;;;;;;;;5034964;28;20100;-60
2022/03/30 09:17:00;;;;;;;3.67;1.60;;;;;;;;;;5032909;28;20026;-60
2022/03/30 09:19:28;;;;;;;5.70;1.88;;;;;;;;;;5034314;28;20435;-59
2022/03/30 09:21:59;;;;;;;4.65;1.75;;;;;;;;;;5034825;28;20116;-59
2022/03/30 09:24:30;;;;;;;4.82;1.50;;;;;;;;;;5034996;28;20028;-59
2022/03/30 09:26:57;;;;;;;4.60;1.88;;;;;;;;;;5034573;28;20136;-60
2022/03/30 09:29:25;;;;;;;4.88;1.60;;;;;;;;;;5034305;28;20092;-61
2022/03/30 09:31:52;;;;;;;7.82;2.13;;;;;;;;;;5034898;28;20361;-60
2022/03/30 09:34:19;;;;;;;3.78;1.80;;;;;;;;;;5034675;28;20075;-63
2022/03/30 09:36:45;;;;;;;5.13;2.20;;;;;;;;;;5033381;28;20030;-63
2022/03/30 09:39:33;;;;;;;5.88;1.70;;;;;;;;;;5034640;28;20029;-62
2022/03/30 09:42:00;;;;;;;2.42;1.33;;;;;;;;;;5034642;28;20368;-60
2022/03/30 09:44:30;;;;;;;3.25;1.60;;;;;;;;;;5034510;28;20034;-61
2022/03/30 09:47:06;;;;;;;2.92;1.40;;;;;;;;;;5034348;28;20033;-60
2022/03/30 09:49:43;;;;;;;2.53;1.20;;;;;;;;;;5034540;28;20037;-61
2022/03/30 09:52:19;;;;;;;5.72;1.50;;;;;;;;;;5034452;28;20033;-60
2022/03/30 09:54:50;;;;;;;5.07;1.70;;;;;;;;;;5034353;28;20029;-61
2022/03/30 09:57:20;;;;;;;7.45;1.50;;;;;;;;;;5034471;28;20025;-60
2022/03/30 10:00:17;;;;;;;3.45;1.20;;;;;;;;;;5034078;28;20026;-61
2022/03/30 10:02:51;;;;;;;3.30;1.48;;;;;;;;;;5034215;28;20513;-60
2022/03/30 10:05:23;;;;;;;3.03;1.10;;;;;;;;;;5032814;28;20030;-60
2022/03/30 10:07:49;;;;;;;2.35;1.20;;;;;;;;;;5034111;28;20104;-63
2022/03/30 10:10:17;;;;;;;3.42;1.30;;;;;;;;;;5034161;28;20026;-59
2022/03/30 10:12:43;;;;;;;4.45;1.30;;;;;;;;;;5033599;28;20029;-60
2022/03/30 10:15:11;;;;;;;2.95;1.30;;;;;;;;;;5034204;28;20048;-59
2022/03/30 10:17:37;;;;;;;3.20;1.30;;;;;;;;;;5034051;28;20029;-60
2022/03/30 10:20:04;;;;;;;4.00;1.60;;;;;;;;;;5033830;28;20025;-60
2022/03/30 10:22:54;;;;;;;4.03;1.20;;;;;;;;;;5033759;28;20021;-60
2022/03/30 10:25:44;;;;;;;3.10;1.25;;;;;;;;;;5016061;28;20382;-60
2022/03/30 10:28:19;;;;;;;3.67;1.10;;;;;;;;;;5033352;28;20083;-60
2022/03/30 10:30:44;;;;;;;2.60;1.38;;;;;;;;;;5033379;28;20372;-59
2022/03/30 10:33:11;;;;;;;4.18;1.73;;;;;;;;;;5033661;28;20052;-60
2022/03/30 10:35:40;;;;;;;3.30;1.23;;;;;;;;;;5033657;28;20036;-59
2022/03/30 10:38:06;;;;;;;4.53;1.02;;;;;;;;;;5032995;28;20079;-60
2022/03/30 10:40:32;;;;;;;5.18;1.30;;;;;;;;;;5033402;28;20021;-62
2022/03/30 10:43:00;;;;;;;2.53;1.13;;;;;;;;;;5033237;28;20398;-60
2022/03/30 10:45:29;;;;;;;4.72;1.42;;;;;;;;;;5033481;28;20017;-60
2022/03/30 10:48:12;;;;;;;3.17;1.40;;;;;;;;;;5015409;28;20386;-63
2022/03/30 10:50:41;;;;;;;4.05;1.27;;;;;;;;;;5033108;28;20025;-63
2022/03/30 10:53:31;;;;;;;4.95;1.38;;;;;;;;;;5033186;28;20120;-60
2022/03/30 10:56:29;;;;;;;1.90;1.20;;;;;;;;;;5033025;28;20033;-62
2022/03/30 10:58:58;;;;;;;2.75;1.30;;;;;;;;;;5032181;28;20064;-60
2022/03/30 11:01:28;;;;;;;3.05;1.20;;;;;;;;;;5033151;28;20018;-61
2022/03/30 11:04:16;;;;;;;3.20;1.17;;;;;;;;;;5033084;28;20029;-62
2022/03/30 11:06:54;;;;;;;3.22;1.20;;;;;;;;;;5032837;28;20049;-60
2022/03/30 11:09:19;;;;;;;4.72;1.63;;;;;;;;;;5032625;28;20076;-59
2022/03/30 11:11:55;;;;;;;2.42;1.40;;;;;;;;;;5032675;28;20025;-60
2022/03/30 11:14:35;;;;;;;3.65;1.33;;;;;;;;;;5032854;28;20108;-60
2022/03/30 11:17:05;;;;;;;3.25;1.80;;;;;;;;;;5032800;28;20033;-63
2022/03/30 11:19:55;;;;;;;1.50;0.90;;;;;;;;;;5032622;28;20352;-60
2022/03/30 11:22:28;;;;;;;5.82;1.40;;;;;;;;;;5032886;28;20055;-59
2022/03/30 11:25:23;;;;;;;3.95;1.30;;;;;;;;;;5032159;28;20033;-59
2022/03/30 11:27:58;;;;;;;3.05;1.10;;;;;;;;;;5032599;28;20191;-60
2022/03/30 11:30:25;;;;;;;4.43;0.98;;;;;;;;;;5032383;28;20060;-60
2022/03/30 11:32:51;;;;;;;2.20;1.20;;;;;;;;;;5032380;28;20034;-59
2022/03/30 11:35:18;;;;;;;2.72;1.20;;;;;;;;;;5032546;28;20040;-61
2022/03/30 11:37:46;;;;;;;1.52;1.00;;;;;;;;;;5032577;28;20026;-59
2022/03/30 11:40:20;;;;;;;4.00;1.35;;;;;;;;;;5032232;28;20577;-59
2022/03/30 11:42:52;;;;;;;1.98;1.13;;;;;;;;;;5032323;28;20029;-60
2022/03/30 11:45:21;;;;;;;1.27;0.82;;;;;;;;;;5032405;28;20032;-59
2022/03/30 11:47:52;;;;;;;1.98;1.17;;;;;;;;;;5032402;28;20076;-60
2022/03/30 11:50:34;;;;;;;3.00;1.58;;;;;;;;;;5032592;28;20032;-60
2022/03/30 11:53:04;;;;;;;2.92;1.30;;;;;;;;;;5032256;28;20051;-59
2022/03/30 11:55:35;;;;;;;5.80;1.97;;;;;;;;;;5032324;28;20052;-60
2022/03/30 11:58:01;;;;;;;3.47;1.00;;;;;;;;;;5031524;28;20386;-59
2022/03/30 12:00:29;;;;;;;3.08;1.10;;;;;;;;;;5032092;28;20033;-59
2022/03/30 12:02:57;;;;;;;3.20;1.10;;;;;;;;;;5032014;28;20052;-60
2022/03/30 12:05:23;;;;;;;2.08;0.88;;;;;;;;;;5032044;28;20037;-60
2022/03/30 12:07:58;;;;;;;1.38;1.15;;;;;;;;;;5019988;28;20034;-60
2022/03/30 12:10:31;;;;;;;2.95;1.50;;;;;;;;;;5012528;28;20032;-60
2022/03/30 12:12:58;;;;;;;5.00;0.90;;;;;;;;;;5027813;28;20033;-62
2022/03/30 12:15:24;;;;;;;4.28;1.90;;;;;;;;;;5014439;28;20156;-60
2022/03/30 12:17:56;;;;;;;2.08;1.00;;;;;;;;;;5030466;28;20026;-60
2022/03/30 12:20:27;;;;;;;2.53;1.35;;;;;;;;;;5031324;28;20061;-60
2022/03/30 12:22:58;;;;;;;11.48;2.60;;;;;;;;;;5031507;28;20443;-61
2022/03/30 12:25:28;;;;;;;3.25;1.05;;;;;;;;;;5032140;28;20111;-61
2022/03/30 12:27:54;;;;;;;1.43;0.90;;;;;;;;;;5032005;28;20024;-61
2022/03/30 12:30:20;;;;;;;2.20;1.10;;;;;;;;;;5031922;28;20144;-60
2022/03/30 12:32:47;;;;;;;1.45;0.90;;;;;;;;;;5031787;28;20040;-60
2022/03/30 12:35:16;;;;;;;3.25;0.93;;;;;;;;;;5031860;28;20055;-60
2022/03/30 12:37:45;;;;;;;2.40;1.50;;;;;;;;;;5031628;28;20106;-60
2022/03/30 12:40:14;;;;;;;1.48;1.00;;;;;;;;;;5031933;28;20105;-63
2022/03/30 12:42:41;;;;;;;1.98;1.20;;;;;;;;;;5031789;28;20028;-62
2022/03/30 12:45:10;;;;;;;2.22;0.88;;;;;;;;;;5031983;28;20037;-60
2022/03/30 12:47:51;;;;;;;3.47;0.90;;;;;;;;;;5032021;28;20082;-60
2022/03/30 12:50:26;;;;;;;3.22;1.13;;;;;;;;;;5031230;28;20033;-60
2022/03/30 12:52:54;;;;;;;11.80;5.78;;;;;;;;;;5031483;28;20032;-60
2022/03/30 12:55:27;;;;;;;6.35;1.55;;;;;;;;;;5031366;28;20030;-61
2022/03/30 12:58:00;;;;;;;2.03;1.30;;;;;;;;;;5031606;28;20453;-60
2022/03/30 13:00:31;;;;;;;3.08;1.40;;;;;;;;;;5013483;28;20465;-60
2022/03/30 13:03:18;;;;;;;3.13;1.02;;;;;;;;;;5031529;28;20033;-60
2022/03/30 13:06:07;;;;;;;2.95;1.45;;;;;;;;;;5031811;28;20029;-61
2022/03/30 13:08:33;;;;;;;1.85;1.00;;;;;;;;;;5031676;28;20037;-60
2022/03/30 13:11:02;;;;;;;1.40;0.93;;;;;;;;;;5034378;28;20399;-60
2022/03/30 13:13:30;;;;;;;1.90;1.10;;;;;;;;;;5034933;28;20044;-61
2022/03/30 13:16:11;;;;;;;2.10;0.90;;;;;;;;;;5035206;28;20100;-62
2022/03/30 13:18:38;;;;;;;4.35;2.17;;;;;;;;;;5034662;28;20505;-60
2022/03/30 13:21:12;;;;;;;3.20;1.20;;;;;;;;;;5034664;28;20454;-61
2022/03/30 13:23:48;;;;;;;4.13;2.50;;;;;;;;;;5035148;28;20030;-63
2022/03/30 13:26:44;;;;;;;1.73;0.98;;;;;;;;;;5035033;28;20108;-63
2022/03/30 13:29:14;;;;;;;2.42;1.10;;;;;;;;;;5022118;28;20049;-61
2022/03/30 13:31:43;;;;;;;1.90;1.05;;;;;;;;;;5034887;28;20032;-60
2022/03/30 13:34:09;;;;;;;3.65;1.75;;;;;;;;;;5034743;28;20026;-60
2022/03/30 13:36:35;;;;;;;4.32;1.80;;;;;;;;;;5034604;28;20029;-62
2022/03/30 13:39:00;;;;;;;6.85;2.65;;;;;;;;;;5034446;28;20155;-60
2022/03/30 13:41:26;;;;;;;13.23;5.15;;;;;;;;;;5034611;28;20034;-62
2022/03/30 13:43:52;;;;;;;11.80;4.80;;;;;;;;;;5034432;28;20033;-62
2022/03/30 13:46:19;;;;;;;5.60;2.90;;;;;;;;;;5034592;28;20025;-61
2022/03/30 13:48:45;;;;;;;3.70;1.80;;;;;;;;;;5034136;28;20021;-63
2022/03/30 13:51:10;;;;;;;3.30;1.00;;;;;;;;;;5034165;28;20042;-60
2022/03/30 13:53:37;;;;;;;2.00;1.00;;;;;;;;;;5034341;28;20033;-60
2022/03/30 13:56:07;;;;;;;1.33;1.00;;;;;;;;;;5034574;28;20390;-63
2022/03/30 13:58:34;;;;;;;3.67;1.80;;;;;;;;;;5034393;28;20053;-61
2022/03/30 14:01:00;;;;;;;6.55;3.00;;;;;;;;;;5033962;28;20033;-60
2022/03/30 14:03:26;;;;;;;1.90;0.93;;;;;;;;;;5033921;28;20479;-61
2022/03/30 14:05:52;;;;;;;1.45;0.90;;;;;;;;;;5033959;28;20040;-60
2022/03/30 14:08:18;;;;;;;3.08;1.05;;;;;;;;;;5033962;28;20087;-60
2022/03/30 14:10:44;;;;;;;2.90;1.05;;;;;;;;;;5033947;28;20104;-63
2022/03/30 14:13:10;;;;;;;6.07;1.42;;;;;;;;;;5033706;28;20479;-59
2022/03/30 14:15:36;;;;;;;3.30;1.50;;;;;;;;;;5033939;28;20026;-63
2022/03/30 14:18:02;;;;;;;2.13;1.10;;;;;;;;;;5033837;28;20044;-60
2022/03/30 14:20:28;;;;;;;4.03;1.60;;;;;;;;;;5033621;28;20033;-59
2022/03/30 14:22:53;;;;;;;45.85;11.35;;;;;;;;;;5033187;28;20021;-60
2022/03/30 14:25:19;;;;;;;3.08;1.40;;;;;;;;;;5033486;28;20033;-59
2022/03/30 14:27:45;;;;;;;3.58;0.98;;;;;;;;;;5033700;28;20040;-60
2022/03/30 14:30:12;;;;;;;2.88;1.70;;;;;;;;;;5033640;28;20057;-60
2022/03/30 14:32:40;;;;;;;1.48;0.95;;;;;;;;;;5033627;28;20467;-59
2022/03/30 14:35:06;;;;;;;2.30;1.30;;;;;;;;;;5033275;28;20033;-60
2022/03/30 14:37:33;;;;;;;2.80;1.02;;;;;;;;;;5033449;28;20057;-60
2022/03/30 14:40:01;;;;;;;1.92;1.10;;;;;;;;;;5033410;28;20045;-60
2022/03/30 14:42:27;;;;;;;1.90;1.10;;;;;;;;;;5033537;28;20386;-61
2022/03/30 14:44:52;;;;;;;3.38;1.45;;;;;;;;;;5033205;28;20073;-61
2022/03/30 14:47:18;;;;;;;4.25;1.33;;;;;;;;;;5033276;28;20025;-60
2022/03/30 14:49:47;;;;;;;3.25;1.33;;;;;;;;;;5033009;28;20034;-60
2022/03/30 14:52:14;;;;;;;1.88;1.10;;;;;;;;;;5033264;28;20494;-61
2022/03/30 14:54:39;;;;;;;3.63;1.80;;;;;;;;;;5033018;28;20033;-60